createdAt,value
2023-05-05T04:48:24.814Z,14.30
2023-05-05T04:50:52.844Z,14.30
2023-05-05T05:05:41.018Z,14.60
2023-05-05T05:08:09.176Z,14.50
2023-05-05T05:10:37.658Z,14.60
2023-05-05T05:13:05.829Z,14.60
2023-05-05T05:15:33.873Z,14.70
2023-05-05T05:18:02.032Z,14.70
2023-05-05T05:20:31.385Z,14.80
2023-05-05T05:23:02.216Z,14.80
2023-05-05T05:25:30.360Z,14.80
2023-05-05T05:28:08.771Z,14.90
2023-05-05T05:30:37.492Z,14.90
2023-05-05T05:33:05.983Z,15.00
2023-05-05T05:35:34.131Z,15.10
2023-05-05T05:38:03.784Z,15.10
2023-05-05T05:40:32.314Z,15.20
2023-05-05T05:43:00.502Z,15.30
2023-05-05T05:45:28.601Z,15.30
2023-05-05T05:47:56.770Z,15.30
2023-05-05T05:50:27.174Z,15.30
2023-05-05T05:52:55.574Z,15.30
2023-05-05T05:55:25.083Z,15.40
2023-05-05T05:57:53.165Z,15.40
2023-05-05T06:00:21.430Z,15.40
2023-05-05T06:02:51.334Z,15.50
2023-05-05T06:05:19.617Z,15.50
2023-05-05T06:07:47.668Z,15.50
2023-05-05T06:10:27.172Z,15.50
2023-05-05T06:12:59.344Z,15.50
2023-05-05T06:15:27.414Z,15.50
2023-05-05T06:17:55.488Z,15.50
2023-05-05T06:20:23.699Z,15.50
2023-05-05T06:22:51.779Z,15.60
2023-05-05T06:25:19.778Z,15.60
2023-05-05T06:27:47.856Z,15.70
2023-05-05T06:30:17.761Z,15.70
2023-05-05T06:32:45.924Z,15.70
2023-05-05T06:35:14.064Z,15.70
2023-05-05T06:37:42.110Z,15.70
2023-05-05T06:40:11.550Z,15.80
2023-05-05T06:42:39.621Z,15.80
2023-05-05T06:45:08.753Z,15.80
2023-05-05T06:47:38.603Z,15.80
2023-05-05T06:50:08.910Z,15.80
2023-05-05T06:52:37.473Z,15.80
2023-05-05T06:55:06.175Z,15.80
2023-05-05T06:57:34.576Z,15.70
2023-05-05T07:00:06.168Z,15.80
2023-05-05T07:02:34.727Z,15.80
2023-05-05T07:05:04.471Z,15.70
2023-05-05T07:07:32.865Z,15.80
2023-05-05T07:10:00.986Z,15.80
2023-05-05T07:12:31.086Z,15.90
2023-05-05T07:14:59.160Z,15.80
2023-05-05T07:17:27.285Z,15.80
2023-05-05T07:19:55.555Z,15.80
2023-05-05T07:22:24.960Z,15.80
2023-05-05T07:24:53.436Z,15.80
2023-05-05T07:27:22.546Z,15.90
2023-05-05T07:29:50.719Z,15.90
2023-05-05T07:32:18.758Z,16.00
2023-05-05T07:34:46.861Z,16.00
2023-05-05T07:37:15.035Z,16.10
2023-05-05T07:39:44.548Z,16.20
2023-05-05T07:42:12.763Z,16.30
2023-05-05T07:44:40.885Z,16.30
2023-05-05T07:47:09.092Z,16.30
2023-05-05T07:49:37.206Z,16.30
2023-05-05T07:52:05.498Z,16.50
2023-05-05T07:54:33.684Z,16.40
2023-05-05T07:57:03.114Z,16.30
2023-05-05T07:59:31.154Z,16.30
2023-05-05T08:01:59.217Z,16.30
2023-05-05T08:04:27.381Z,16.20
2023-05-05T08:06:55.417Z,16.30
2023-05-05T08:09:23.489Z,16.30
2023-05-05T08:11:51.571Z,16.40
2023-05-05T08:14:21.061Z,16.50
2023-05-05T08:16:49.140Z,16.60
2023-05-05T08:19:28.997Z,16.70
2023-05-05T08:21:58.913Z,16.80
2023-05-05T08:24:29.357Z,16.90
2023-05-05T08:26:57.721Z,17.00
2023-05-05T08:29:27.633Z,17.00
2023-05-05T08:31:55.849Z,17.00
2023-05-05T08:34:23.980Z,17.00
2023-05-05T08:36:52.094Z,16.90
2023-05-05T08:39:20.553Z,17.00
2023-05-05T08:41:48.795Z,17.00
2023-05-05T08:44:17.008Z,17.00
2023-05-05T08:46:47.092Z,17.00
2023-05-05T08:49:17.164Z,17.10
2023-05-05T08:51:46.764Z,17.20
2023-05-05T08:54:19.378Z,17.30
2023-05-05T08:56:50.783Z,17.20
2023-05-05T08:59:20.048Z,17.10
2023-05-05T09:01:49.795Z,17.10
2023-05-05T09:04:19.128Z,17.20
2023-05-05T09:06:47.234Z,17.20
2023-05-05T09:09:16.140Z,17.10
2023-05-05T09:11:46.104Z,17.10
2023-05-05T09:14:14.225Z,17.10
2023-05-05T09:16:44.239Z,17.10
2023-05-05T09:19:13.681Z,17.00
2023-05-05T09:21:48.783Z,17.10
2023-05-05T09:24:16.868Z,17.00
2023-05-05T09:26:46.675Z,17.10
2023-05-05T09:29:19.605Z,17.10
2023-05-05T09:32:05.408Z,17.10
2023-05-05T09:34:36.218Z,17.10
2023-05-05T09:37:05.957Z,17.20
2023-05-05T09:39:34.193Z,17.20
2023-05-05T09:42:04.166Z,17.30
2023-05-05T09:44:37.264Z,17.40
2023-05-05T09:47:11.986Z,17.40
2023-05-05T09:49:58.586Z,17.40
2023-05-05T09:52:26.844Z,17.40
2023-05-05T09:54:58.263Z,17.40
2023-05-05T09:57:31.677Z,17.40
2023-05-05T10:00:01.756Z,17.50
2023-05-05T10:02:34.422Z,17.40
2023-05-05T10:05:14.746Z,17.30
2023-05-05T10:07:44.240Z,17.40
2023-05-05T10:10:13.928Z,17.40
2023-05-05T10:12:42.311Z,17.20
2023-05-05T10:15:11.655Z,17.20
2023-05-05T10:17:58.325Z,17.30
2023-05-05T10:20:37.531Z,17.40
2023-05-05T10:23:09.332Z,17.50
2023-05-05T10:25:42.859Z,17.60
2023-05-05T10:28:13.034Z,17.50
2023-05-05T10:30:47.152Z,17.40
2023-05-05T10:33:31.635Z,17.50
2023-05-05T10:36:05.215Z,17.50
2023-05-05T10:38:33.815Z,17.40
2023-05-05T10:41:02.636Z,17.40
2023-05-05T10:43:32.180Z,17.50
2023-05-05T10:46:01.128Z,17.50
2023-05-05T10:48:35.589Z,17.30
2023-05-05T10:51:27.494Z,17.30
2023-05-05T10:54:04.161Z,17.10
2023-05-05T10:56:33.833Z,17.10
2023-05-05T10:59:02.054Z,17.00
2023-05-05T11:01:32.637Z,16.90
2023-05-05T11:04:20.867Z,16.90
2023-05-05T11:07:27.530Z,16.80
2023-05-05T11:09:57.026Z,16.70
2023-05-05T11:12:25.118Z,16.70
2023-05-05T11:15:37.931Z,16.70
2023-05-05T11:18:08.452Z,16.80
2023-05-05T11:21:19.858Z,16.80
2023-05-05T11:23:51.170Z,16.80
2023-05-05T11:26:40.342Z,16.90
2023-05-05T11:29:09.816Z,16.90
2023-05-05T11:31:38.302Z,17.10
2023-05-05T11:34:36.632Z,17.10
2023-05-05T11:37:09.080Z,17.20
2023-05-05T11:39:43.963Z,17.40
2023-05-05T11:42:23.726Z,17.70
2023-05-05T11:44:53.454Z,18.30
2023-05-05T11:47:32.409Z,18.90
2023-05-05T11:50:18.623Z,19.30
2023-05-05T11:52:46.926Z,19.80
2023-05-05T11:55:22.212Z,20.30
2023-05-05T11:57:50.615Z,20.60
2023-05-05T12:00:20.923Z,20.60
2023-05-05T12:02:57.874Z,20.60
2023-05-05T12:05:26.241Z,21.10
2023-05-05T12:07:59.163Z,21.40
2023-05-05T12:10:27.591Z,21.70
2023-05-05T12:12:55.962Z,21.80
2023-05-05T12:15:33.552Z,21.80
2023-05-05T12:18:03.084Z,21.30
2023-05-05T12:20:33.369Z,21.00
2023-05-05T12:23:02.952Z,21.00
2023-05-05T12:25:40.625Z,21.00
2023-05-05T12:28:09.749Z,20.70
2023-05-05T12:30:39.272Z,20.40
2023-05-05T12:33:08.432Z,20.40
2023-05-05T12:35:37.080Z,20.50
2023-05-05T12:38:05.209Z,20.70
2023-05-05T12:40:47.398Z,21.00
2023-05-05T12:43:29.528Z,21.20
2023-05-05T12:46:10.403Z,21.30
2023-05-05T12:48:39.402Z,21.80
2023-05-05T12:51:18.262Z,22.10
2023-05-05T12:53:46.789Z,22.20
2023-05-05T12:56:37.651Z,22.40
2023-05-05T12:59:07.519Z,22.50
2023-05-05T13:01:37.916Z,22.50
2023-05-05T13:04:11.255Z,22.60
2023-05-05T13:06:40.312Z,22.50
2023-05-05T13:09:08.983Z,22.30
2023-05-05T13:11:37.904Z,22.40
2023-05-05T13:14:07.169Z,22.50
2023-05-05T13:16:36.662Z,22.40
2023-05-05T13:19:04.788Z,22.60
2023-05-05T13:21:33.051Z,22.60
2023-05-05T13:24:18.328Z,22.80
2023-05-05T13:26:49.630Z,22.90
2023-05-05T13:29:18.007Z,22.70
2023-05-05T13:31:47.533Z,23.00
2023-05-05T13:34:15.624Z,23.00
2023-05-05T13:36:43.655Z,23.10
2023-05-05T13:39:12.546Z,23.10
2023-05-05T13:41:40.680Z,22.60
2023-05-05T13:44:08.934Z,22.70
2023-05-05T13:46:37.177Z,22.40
2023-05-05T13:49:06.663Z,22.30
2023-05-05T13:51:35.719Z,22.20
2023-05-05T13:54:04.335Z,22.10
2023-05-05T13:56:32.688Z,22.40
2023-05-05T13:59:00.953Z,22.30
2023-05-05T14:01:29.555Z,22.40
2023-05-05T14:03:58.465Z,22.40
2023-05-05T14:06:27.960Z,22.30
2023-05-05T14:08:56.007Z,22.20
2023-05-05T14:11:24.402Z,22.30
2023-05-05T14:13:52.790Z,22.40
2023-05-05T14:16:21.079Z,22.30
2023-05-05T14:18:49.194Z,22.20
2023-05-05T14:21:17.281Z,22.30
2023-05-05T14:23:46.740Z,22.30
2023-05-05T14:26:14.822Z,22.40
2023-05-05T14:28:43.584Z,22.10
2023-05-05T14:31:11.987Z,21.80
2023-05-05T14:33:40.204Z,21.80
2023-05-05T14:36:08.989Z,21.70
2023-05-05T14:38:37.124Z,21.80
2023-05-05T14:41:06.941Z,21.80
2023-05-05T14:43:35.676Z,21.60
2023-05-05T14:46:06.898Z,21.60
2023-05-05T14:48:35.668Z,21.70
2023-05-05T14:51:04.238Z,21.80
2023-05-05T14:53:32.336Z,21.90
2023-05-05T14:56:02.279Z,22.00
2023-05-05T14:58:31.969Z,21.80
2023-05-05T15:01:00.534Z,21.80
2023-05-05T15:03:28.949Z,21.80
2023-05-05T15:05:57.432Z,21.80
2023-05-05T15:08:25.623Z,21.80
2023-05-05T15:10:53.690Z,21.90
2023-05-05T15:13:21.815Z,22.00
2023-05-05T15:15:51.385Z,22.00
2023-05-05T15:18:20.071Z,22.00
2023-05-05T15:20:48.140Z,21.90
2023-05-05T15:23:16.221Z,22.00
2023-05-05T15:25:44.353Z,21.60
2023-05-05T15:28:12.508Z,21.40
2023-05-05T15:30:40.588Z,21.10
2023-05-05T15:33:10.046Z,21.00
2023-05-05T15:35:38.249Z,21.10
2023-05-05T15:38:06.417Z,21.20
2023-05-05T15:40:34.569Z,21.20
2023-05-05T15:43:03.913Z,21.20
2023-05-05T15:45:32.099Z,21.30
2023-05-05T15:48:00.278Z,21.30
2023-05-05T15:50:29.745Z,21.20
2023-05-05T15:52:58.061Z,21.10
2023-05-05T15:55:26.464Z,21.20
2023-05-05T15:57:55.060Z,21.30
2023-05-05T16:00:24.240Z,21.20
2023-05-05T16:02:52.389Z,21.00
2023-05-05T16:05:22.845Z,21.00
2023-05-05T16:07:53.699Z,20.70
2023-05-05T16:10:22.036Z,20.70
2023-05-05T16:12:51.995Z,20.70
2023-05-05T16:15:20.376Z,20.70
2023-05-05T16:17:48.481Z,20.70
2023-05-05T16:20:16.575Z,20.60
2023-05-05T16:22:44.681Z,20.60
2023-05-05T16:25:17.711Z,20.60
2023-05-05T16:27:45.849Z,20.60
2023-05-05T16:30:15.473Z,20.60
2023-05-05T16:32:43.964Z,20.40
2023-05-05T16:35:12.189Z,20.50
2023-05-05T16:37:40.370Z,20.40
2023-05-05T16:40:09.834Z,20.30
2023-05-05T16:42:39.366Z,20.20
2023-05-05T16:45:09.124Z,20.10
2023-05-05T16:47:37.402Z,20.10
2023-05-05T16:50:06.501Z,20.20
2023-05-05T16:52:34.940Z,20.20
2023-05-05T16:55:04.853Z,20.10
2023-05-05T16:57:33.163Z,20.00
2023-05-05T17:00:03.371Z,20.20
2023-05-05T17:02:31.467Z,20.20
2023-05-05T17:04:59.771Z,20.10
2023-05-05T17:07:28.304Z,20.20
2023-05-05T17:09:56.445Z,20.00
2023-05-05T17:12:24.469Z,20.00
2023-05-05T17:14:52.568Z,20.00
2023-05-05T17:17:22.038Z,19.90
2023-05-05T17:19:50.477Z,19.90
2023-05-05T17:22:18.593Z,19.90
2023-05-05T17:24:46.720Z,19.90
2023-05-05T17:27:14.865Z,19.90
2023-05-05T17:29:43.182Z,19.90
2023-05-05T17:32:11.603Z,19.90
2023-05-05T17:34:41.217Z,19.90
2023-05-05T17:37:10.388Z,20.00
2023-05-05T17:39:38.522Z,20.00
2023-05-05T17:42:06.654Z,19.80
2023-05-05T17:44:34.792Z,19.80
2023-05-05T17:47:04.013Z,19.80
2023-05-05T17:49:32.127Z,19.90
2023-05-05T17:52:01.747Z,19.90
2023-05-05T17:54:30.058Z,19.80
2023-05-05T17:56:59.630Z,19.80
2023-05-05T17:59:27.796Z,19.70
2023-05-05T18:01:55.909Z,19.60
2023-05-05T18:04:24.306Z,19.50
2023-05-05T18:06:52.627Z,19.50
2023-05-05T18:09:22.242Z,19.50
2023-05-05T18:11:53.000Z,19.50
2023-05-05T18:14:22.447Z,19.50
2023-05-05T18:16:52.399Z,19.50
2023-05-05T18:19:22.206Z,19.50
2023-05-05T18:21:51.780Z,19.50
2023-05-05T18:24:21.410Z,19.50
2023-05-05T18:26:50.961Z,19.50
2023-05-05T18:29:19.353Z,19.40
2023-05-05T18:31:51.487Z,19.40
2023-05-05T18:34:20.607Z,19.30
2023-05-05T18:36:49.385Z,19.20
2023-05-05T18:39:17.925Z,19.20
2023-05-05T18:42:03.571Z,19.30
2023-05-05T18:44:32.741Z,19.20
2023-05-05T18:47:01.168Z,19.20
2023-05-05T18:49:31.337Z,19.20
2023-05-05T18:51:59.764Z,19.10
2023-05-05T18:54:28.233Z,19.10
2023-05-05T18:56:56.401Z,19.20
2023-05-05T18:59:25.972Z,19.10
2023-05-05T19:01:54.131Z,19.10
2023-05-05T19:04:30.860Z,19.10
